Time;durP1;ratioP1;P1;durP2;ratioP2;P2;SDS_P1;SDS_P2;PMS_P1;PMS_P2;Temp;Humidity;BMP_temperature;BMP_pressure;BME280_temperature;BME280_humidity;BME280_pressure;Samples;Min_cycle;Max_cycle;Signal;HPM_P1;HPM_P2
2023/05/17 00:02:14;;;;;;;;;;;;;;;;;;5045543;28;4670;-59
2023/05/17 00:04:40;;;;;;;;;;;;;;;;;;5044932;28;3511;-59
2023/05/17 00:07:05;;;;;;;;;;;;;;;;;;5042291;28;4627;-57
2023/05/17 00:09:30;;;;;;;;;;;;;;;;;;5042691;28;4521;-59
2023/05/17 00:11:55;;;;;;;;;;;;;;;;;;5045802;28;4726;-59
2023/05/17 00:14:21;;;;;;;;;;;;;;;;;;5046778;28;4724;-59
2023/05/17 00:16:46;;;;;;;;;;;;;;;;;;5048042;28;1178;-59
2023/05/17 00:19:11;;;;;;;;;;;;;;;;;;5047320;28;5053;-59
2023/05/17 00:21:36;;;;;;;;;;;;;;;;;;5043380;28;5071;-59
2023/05/17 00:24:02;;;;;;;;;;;;;;;;;;5047569;28;5125;-59
2023/05/17 00:26:27;;;;;;;;;;;;;;;;;;5047101;28;4457;-59
2023/05/17 00:28:52;;;;;;;;;;;;;;;;;;5047755;28;1197;-59
2023/05/17 00:31:18;;;;;;;;;;;;;;;;;;5047251;28;5015;-59
2023/05/17 00:33:43;;;;;;;;;;;;;;;;;;5046929;28;4491;-59
2023/05/17 00:36:08;;;;;;;;;;;;;;;;;;5047008;28;4671;-59
2023/05/17 00:38:33;;;;;;;;;;;;;;;;;;5045806;28;4669;-59
2023/05/17 00:40:59;;;;;;;;;;;;;;;;;;5047382;28;4631;-59
2023/05/17 00:43:25;;;;;;;;;;;;;;;;;;5047163;28;1281;-59
2023/05/17 00:45:50;;;;;;;;;;;;;;;;;;5047209;28;5447;-59
2023/05/17 00:48:15;;;;;;;;;;;;;;;;;;5042554;28;4531;-59
2023/05/17 00:50:41;;;;;;;;;;;;;;;;;;5042015;28;4521;-59
2023/05/17 00:53:06;;;;;;;;;;;;;;;;;;5047125;28;4777;-59
2023/05/17 00:55:32;;;;;;;;;;;;;;;;;;5046341;28;4921;-59
2023/05/17 00:57:57;;;;;;;;;;;;;;;;;;5049130;28;4591;-59
2023/05/17 01:00:22;;;;;;;;;;;;;;;;;;5048989;28;4965;-59
2023/05/17 01:02:47;;;;;;;;;;;;;;;;;;5048915;28;5071;-59
2023/05/17 01:05:13;;;;;;;;;;;;;;;;;;5052368;28;5147;-59
2023/05/17 01:07:38;;;;;;;;;;;;;;;;;;5050996;28;1910;-59
2023/05/17 01:10:04;;;;;;;;;;;;;;;;;;5049979;28;5164;-59
2023/05/17 01:12:48;;;;;;;;;;;;;;;;;;5049164;28;5051;-59
2023/05/17 01:15:26;;;;;;;;;;;;;;;;;;5048210;28;4490;-58
2023/05/17 01:17:54;;;;;;;;;;;;;;;;;;5048867;28;4965;-59
2023/05/17 01:20:22;;;;;;;;;;;;;;;;;;5044944;28;4467;-59
2023/05/17 01:22:52;;;;;;;;;;;;;;;;;;5050696;28;1142;-59
2023/05/17 01:25:26;;;;;;;;;;;;;;;;;;5050487;28;4492;-59
2023/05/17 01:27:52;;;;;;;;;;;;;;;;;;5047036;28;4964;-59
2023/05/17 01:30:18;;;;;;;;;;;;;;;;;;5048368;28;4752;-59
2023/05/17 01:32:43;;;;;;;;;;;;;;;;;;5050433;28;5089;-60
2023/05/17 01:35:09;;;;;;;;;;;;;;;;;;5032606;28;4662;-59
2023/05/17 01:37:34;;;;;;;;;;;;;;;;;;5050713;28;1386;-59
2023/05/17 01:40:00;;;;;;;;;;;;;;;;;;5050271;28;4681;-59
2023/05/17 01:42:28;;;;;;;;;;;;;;;;;;5049855;28;4467;-59
2023/05/17 01:44:57;;;;;;;;;;;;;;;;;;5048456;28;4954;-59
2023/05/17 01:47:49;;;;;;;;;;;;;;;;;;5048691;28;4500;-58
2023/05/17 01:50:14;;;;;;;;;;;;;;;;;;5044736;28;4700;-57
2023/05/17 01:52:52;;;;;;;;;;;;;;;;;;5049576;28;1344;-59
2023/05/17 01:55:20;;;;;;;;;;;;;;;;;;5037156;28;4919;-59
2023/05/17 01:57:46;;;;;;;;;;;;;;;;;;5049748;28;4493;-59
2023/05/17 02:00:11;;;;;;;;;;;;;;;;;;5050005;28;4750;-59
2023/05/17 02:02:37;;;;;;;;;;;;;;;;;;5049336;28;5016;-58
2023/05/17 02:05:02;;;;;;;;;;;;;;;;;;5048675;28;4640;-59
2023/05/17 02:07:27;;;;;;;;;;;;;;;;;;5048575;28;1918;-59
2023/05/17 02:09:53;;;;;;;;;;;;;;;;;;5055679;28;4681;-59
2023/05/17 02:12:18;;;;;;;;;;;;;;;;;;5049400;28;5001;-59
2023/05/17 02:14:43;;;;;;;;;;;;;;;;;;5049048;28;4668;-59
2023/05/17 02:17:08;;;;;;;;;;;;;;;;;;5044498;28;4629;-59
2023/05/17 02:19:33;;;;;;;;;;;;;;;;;;5047364;28;3483;-59
2023/05/17 02:21:59;;;;;;;;;;;;;;;;;;5047140;28;4604;-59
2023/05/17 02:24:24;;;;;;;;;;;;;;;;;;5047997;28;4680;-59
2023/05/17 02:26:49;;;;;;;;;;;;;;;;;;5044720;28;4667;-59
2023/05/17 02:29:15;;;;;;;;;;;;;;;;;;5048821;28;4721;-59
2023/05/17 02:31:40;;;;;;;;;;;;;;;;;;5049670;28;978;-59
2023/05/17 02:34:05;;;;;;;;;;;;;;;;;;5048580;28;4667;-59
2023/05/17 02:36:31;;;;;;;;;;;;;;;;;;5048520;28;4555;-59
2023/05/17 02:38:56;;;;;;;;;;;;;;;;;;5048105;28;4756;-59
2023/05/17 02:41:21;;;;;;;;;;;;;;;;;;5048929;28;4478;-59
2023/05/17 02:43:47;;;;;;;;;;;;;;;;;;5047577;28;1345;-59
2023/05/17 02:46:12;;;;;;;;;;;;;;;;;;5048727;28;4404;-59
2023/05/17 02:48:37;;;;;;;;;;;;;;;;;;5042614;28;4548;-59
2023/05/17 02:51:02;;;;;;;;;;;;;;;;;;5042903;28;4506;-59
2023/05/17 02:53:28;;;;;;;;;;;;;;;;;;5046761;28;4687;-59
2023/05/17 02:55:56;;;;;;;;;;;;;;;;;;5043373;28;4545;-59
2023/05/17 02:58:22;;;;;;;;;;;;;;;;;;5045735;28;4693;-58
2023/05/17 03:00:47;;;;;;;;;;;;;;;;;;5061103;28;4511;-59
2023/05/17 03:03:12;;;;;;;;;;;;;;;;;;5048055;28;4659;-59
2023/05/17 03:05:38;;;;;;;;;;;;;;;;;;5045185;28;4495;-59
2023/05/17 03:08:03;;;;;;;;;;;;;;;;;;5043815;28;4534;-59
2023/05/17 03:10:28;;;;;;;;;;;;;;;;;;5048302;28;3271;-59
2023/05/17 03:12:53;;;;;;;;;;;;;;;;;;5047783;28;4503;-59
2023/05/17 03:15:19;;;;;;;;;;;;;;;;;;5047840;28;4448;-59
2023/05/17 03:17:44;;;;;;;;;;;;;;;;;;5046724;28;5038;-59
2023/05/17 03:20:10;;;;;;;;;;;;;;;;;;5046384;28;5097;-59
2023/05/17 03:22:35;;;;;;;;;;;;;;;;;;5047889;28;2147;-59
2023/05/17 03:25:00;;;;;;;;;;;;;;;;;;5047465;28;4462;-59
2023/05/17 03:27:25;;;;;;;;;;;;;;;;;;5047747;28;4726;-59
2023/05/17 03:29:50;;;;;;;;;;;;;;;;;;5039962;28;4703;-59
2023/05/17 03:32:16;;;;;;;;;;;;;;;;;;5047554;28;4479;-59
2023/05/17 03:34:41;;;;;;;;;;;;;;;;;;5043642;28;1257;-59
2023/05/17 03:37:07;;;;;;;;;;;;;;;;;;5047220;28;5981;-59
2023/05/17 03:39:32;;;;;;;;;;;;;;;;;;5047290;28;5027;-59
2023/05/17 03:41:57;;;;;;;;;;;;;;;;;;5047551;28;4484;-59
2023/05/17 03:44:23;;;;;;;;;;;;;;;;;;5046397;28;4445;-59
2023/05/17 03:46:48;;;;;;;;;;;;;;;;;;5048343;28;2009;-58
2023/05/17 03:49:13;;;;;;;;;;;;;;;;;;5042715;28;4519;-59
2023/05/17 03:51:38;;;;;;;;;;;;;;;;;;5044998;28;5226;-59
2023/05/17 03:54:04;;;;;;;;;;;;;;;;;;5046128;28;5486;-59
2023/05/17 03:56:30;;;;;;;;;;;;;;;;;;5045399;28;4786;-59
2023/05/17 03:58:55;;;;;;;;;;;;;;;;;;5046630;28;2087;-59
2023/05/17 04:01:20;;;;;;;;;;;;;;;;;;5047453;28;4446;-59
2023/05/17 04:03:46;;;;;;;;;;;;;;;;;;5047457;28;4627;-59
2023/05/17 04:06:12;;;;;;;;;;;;;;;;;;5047595;28;4460;-59
2023/05/17 04:08:37;;;;;;;;;;;;;;;;;;5047133;28;5024;-59
2023/05/17 04:11:14;;;;;;;;;;;;;;;;;;5047418;28;4638;-58
2023/05/17 04:13:40;;;;;;;;;;;;;;;;;;5047793;28;1273;-58
2023/05/17 04:16:08;;;;;;;;;;;;;;;;;;5046841;28;4612;-59
2023/05/17 04:18:34;;;;;;;;;;;;;;;;;;5046976;28;4649;-59
2023/05/17 04:20:59;;;;;;;;;;;;;;;;;;5045264;28;4692;-59
2023/05/17 04:23:25;;;;;;;;;;;;;;;;;;5046940;28;5165;-58
2023/05/17 04:25:50;;;;;;;;;;;;;;;;;;5047393;28;3139;-59
2023/05/17 04:28:16;;;;;;;;;;;;;;;;;;5047856;28;4431;-59
2023/05/17 04:30:41;;;;;;;;;;;;;;;;;;5049960;28;4732;-59
2023/05/17 04:33:07;;;;;;;;;;;;;;;;;;5050698;28;4435;-60
2023/05/17 04:35:32;;;;;;;;;;;;;;;;;;5028390;28;5209;-59
2023/05/17 04:37:57;;;;;;;;;;;;;;;;;;5050619;28;3261;-59
2023/05/17 04:40:23;;;;;;;;;;;;;;;;;;5050215;28;4599;-59
2023/05/17 04:42:48;;;;;;;;;;;;;;;;;;5050033;28;5057;-59
2023/05/17 04:45:14;;;;;;;;;;;;;;;;;;5050439;28;4677;-60
2023/05/17 04:47:40;;;;;;;;;;;;;;;;;;5048249;28;4639;-58
2023/05/17 04:50:05;;;;;;;;;;;;;;;;;;5044381;28;5088;-59
2023/05/17 04:52:31;;;;;;;;;;;;;;;;;;5046623;28;3238;-59
2023/05/17 04:54:56;;;;;;;;;;;;;;;;;;5049698;28;4731;-59
2023/05/17 04:57:21;;;;;;;;;;;;;;;;;;5049895;28;4995;-59
2023/05/17 04:59:47;;;;;;;;;;;;;;;;;;5050542;28;4453;-59
2023/05/17 05:02:13;;;;;;;;;;;;;;;;;;5048947;28;4885;-59
2023/05/17 05:04:38;;;;;;;;;;;;;;;;;;5050681;28;3258;-59
2023/05/17 05:07:04;;;;;;;;;;;;;;;;;;5049044;28;4609;-59
2023/05/17 05:09:29;;;;;;;;;;;;;;;;;;5040936;28;4717;-59
2023/05/17 05:11:55;;;;;;;;;;;;;;;;;;5049152;28;4744;-59
2023/05/17 05:14:20;;;;;;;;;;;;;;;;;;5049296;28;4610;-59
2023/05/17 05:16:45;;;;;;;;;;;;;;;;;;5050381;28;3326;-59
2023/05/17 05:19:10;;;;;;;;;;;;;;;;;;5048428;28;4437;-59
2023/05/17 05:21:36;;;;;;;;;;;;;;;;;;5043191;28;4649;-59
2023/05/17 05:24:03;;;;;;;;;;;;;;;;;;5046559;28;4484;-59
2023/05/17 05:26:28;;;;;;;;;;;;;;;;;;5073442;28;4542;-65
2023/05/17 05:28:53;;;;;;;;;;;;;;;;;;5046295;28;3330;-65
2023/05/17 05:31:18;;;;;;;;;;;;;;;;;;5050806;28;4416;-66
2023/05/17 05:33:44;;;;;;;;;;;;;;;;;;5051417;28;4596;-66
2023/05/17 05:36:09;;;;;;;;;;;;;;;;;;5044555;28;5177;-57
2023/05/17 05:38:35;;;;;;;;;;;;;;;;;;5048574;28;4530;-59
2023/05/17 05:41:00;;;;;;;;;;;;;;;;;;5050030;28;4871;-60
2023/05/17 05:43:26;;;;;;;;;;;;;;;;;;5054926;28;3201;-61
2023/05/17 05:45:52;;;;;;;;;;;;;;;;;;5043895;28;4672;-61
2023/05/17 05:48:17;;;;;;;;;;;;;;;;;;5046184;28;4840;-62
2023/05/17 05:50:42;;;;;;;;;;;;;;;;;;5041899;28;5072;-61
2023/05/17 05:53:08;;;;;;;;;;;;;;;;;;5047435;28;4844;-61
2023/05/17 05:55:33;;;;;;;;;;;;;;;;;;5047773;28;5098;-61
2023/05/17 05:57:59;;;;;;;;;;;;;;;;;;5047669;28;5518;-62
2023/05/17 06:00:24;;;;;;;;;;;;;;;;;;5047329;28;4484;-62
2023/05/17 06:02:50;;;;;;;;;;;;;;;;;;5047944;28;4526;-62
2023/05/17 06:05:15;;;;;;;;;;;;;;;;;;5048400;28;4641;-62
2023/05/17 06:07:40;;;;;;;;;;;;;;;;;;5049579;28;2004;-62
2023/05/17 06:10:06;;;;;;;;;;;;;;;;;;5048802;28;4922;-62
2023/05/17 06:12:31;;;;;;;;;;;;;;;;;;5061776;28;4573;-62
2023/05/17 06:14:56;;;;;;;;;;;;;;;;;;5051943;28;4641;-62
2023/05/17 06:17:22;;;;;;;;;;;;;;;;;;5049364;28;4609;-62
2023/05/17 06:19:48;;;;;;;;;;;;;;;;;;5046848;28;1428;-61
2023/05/17 06:22:13;;;;;;;;;;;;;;;;;;5048236;28;4982;-62
2023/05/17 06:24:38;;;;;;;;;;;;;;;;;;5047081;28;5112;-62
2023/05/17 06:27:04;;;;;;;;;;;;;;;;;;5048614;28;4468;-62
2023/05/17 06:29:29;;;;;;;;;;;;;;;;;;5048948;28;4592;-61
2023/05/17 06:31:55;;;;;;;;;;;;;;;;;;5049302;28;1349;-61
2023/05/17 06:34:20;;;;;;;;;;;;;;;;;;5045611;28;4847;-61
2023/05/17 06:36:46;;;;;;;;;;;;;;;;;;5047284;28;5033;-61
2023/05/17 06:39:11;;;;;;;;;;;;;;;;;;5048275;28;5255;-61
2023/05/17 06:41:36;;;;;;;;;;;;;;;;;;5046378;28;4415;-67
2023/05/17 06:44:01;;;;;;;;;;;;;;;;;;5048199;28;5209;-67
2023/05/17 06:46:27;;;;;;;;;;;;;;;;;;5048294;28;1483;-67
2023/05/17 06:48:52;;;;;;;;;;;;;;;;;;5045952;28;4497;-67
2023/05/17 06:51:17;;;;;;;;;;;;;;;;;;5046775;28;4462;-66
2023/05/17 06:53:42;;;;;;;;;;;;;;;;;;5047163;28;4714;-66
2023/05/17 06:56:08;;;;;;;;;;;;;;;;;;5044789;28;4930;-66
2023/05/17 06:58:34;;;;;;;;;;;;;;;;;;5048648;28;1284;-66
2023/05/17 07:00:59;;;;;;;;;;;;;;;;;;5047658;28;4484;-66
2023/05/17 07:03:25;;;;;;;;;;;;;;;;;;5047852;28;4431;-64
2023/05/17 07:05:50;;;;;;;;;;;;;;;;;;5048155;28;4414;-67
2023/05/17 07:08:15;;;;;;;;;;;;;;;;;;5047261;28;4581;-67
2023/05/17 07:10:41;;;;;;;;;;;;;;;;;;5048628;28;1144;-66
2023/05/17 07:13:06;;;;;;;;;;;;;;;;;;5046981;28;4508;-66
2023/05/17 07:15:31;;;;;;;;;;;;;;;;;;5047296;28;4484;-66
2023/05/17 07:17:58;;;;;;;;;;;;;;;;;;5047314;28;4502;-67
2023/05/17 07:20:23;;;;;;;;;;;;;;;;;;5045824;28;4584;-66
2023/05/17 07:22:48;;;;;;;;;;;;;;;;;;5047535;28;1190;-66
2023/05/17 07:25:14;;;;;;;;;;;;;;;;;;5047468;28;4777;-66
2023/05/17 07:27:40;;;;;;;;;;;;;;;;;;5046942;28;4939;-67
2023/05/17 07:30:06;;;;;;;;;;;;;;;;;;5047103;28;4503;-67
2023/05/17 07:32:31;;;;;;;;;;;;;;;;;;5046976;28;5199;-66
2023/05/17 07:34:56;;;;;;;;;;;;;;;;;;5048240;28;1085;-66
2023/05/17 07:37:21;;;;;;;;;;;;;;;;;;5046329;28;4526;-66
2023/05/17 07:39:47;;;;;;;;;;;;;;;;;;5047301;28;4720;-67
2023/05/17 07:42:12;;;;;;;;;;;;;;;;;;5047266;28;4597;-64
2023/05/17 07:44:37;;;;;;;;;;;;;;;;;;5047684;28;4441;-67
2023/05/17 07:47:03;;;;;;;;;;;;;;;;;;5047057;28;4684;-64
2023/05/17 07:49:29;;;;;;;;;;;;;;;;;;5044183;28;1610;-65
2023/05/17 07:51:54;;;;;;;;;;;;;;;;;;5044786;28;4416;-66
2023/05/17 07:54:28;;;;;;;;;;;;;;;;;;5047455;28;4684;-66
2023/05/17 07:56:54;;;;;;;;;;;;;;;;;;5052339;28;5088;-66
2023/05/17 07:59:20;;;;;;;;;;;;;;;;;;5053068;28;4747;-64
2023/05/17 08:01:45;;;;;;;;;;;;;;;;;;5060156;28;1205;-67
2023/05/17 08:04:10;;;;;;;;;;;;;;;;;;5050720;28;4516;-67
2023/05/17 08:06:35;;;;;;;;;;;;;;;;;;5049849;28;4609;-67
2023/05/17 08:09:01;;;;;;;;;;;;;;;;;;5046838;28;5161;-67
2023/05/17 08:11:27;;;;;;;;;;;;;;;;;;5050798;28;4642;-67
2023/05/17 08:13:52;;;;;;;;;;;;;;;;;;5053144;28;1385;-66
2023/05/17 08:16:17;;;;;;;;;;;;;;;;;;5049684;28;4570;-66
2023/05/17 08:18:43;;;;;;;;;;;;;;;;;;5054454;28;4938;-66
2023/05/17 08:21:08;;;;;;;;;;;;;;;;;;5052637;28;5149;-66
2023/05/17 08:23:33;;;;;;;;;;;;;;;;;;5054573;28;4595;-67
2023/05/17 08:25:59;;;;;;;;;;;;;;;;;;5047051;28;4901;-66
2023/05/17 08:28:24;;;;;;;;;;;;;;;;;;5049335;28;1917;-65
2023/05/17 08:30:49;;;;;;;;;;;;;;;;;;5061838;28;4450;-65
2023/05/17 08:33:15;;;;;;;;;;;;;;;;;;5053245;28;4465;-64
2023/05/17 08:35:40;;;;;;;;;;;;;;;;;;5048790;28;5180;-64
2023/05/17 08:38:05;;;;;;;;;;;;;;;;;;5042158;28;4600;-65
2023/05/17 08:40:31;;;;;;;;;;;;;;;;;;5049482;28;1377;-65
2023/05/17 08:42:56;;;;;;;;;;;;;;;;;;5051384;28;5181;-65
2023/05/17 08:45:21;;;;;;;;;;;;;;;;;;5049098;28;4617;-65
2023/05/17 08:47:47;;;;;;;;;;;;;;;;;;5048929;28;4488;-63
2023/05/17 08:50:13;;;;;;;;;;;;;;;;;;5053322;28;4812;-64
2023/05/17 08:52:39;;;;;;;;;;;;;;;;;;5046829;28;1553;-65
2023/05/17 08:55:05;;;;;;;;;;;;;;;;;;5048518;28;4992;-65
2023/05/17 08:57:30;;;;;;;;;;;;;;;;;;5048955;28;4545;-65
2023/05/17 08:59:56;;;;;;;;;;;;;;;;;;5046601;28;4661;-65
2023/05/17 09:02:22;;;;;;;;;;;;;;;;;;5046492;28;4493;-65
2023/05/17 09:04:48;;;;;;;;;;;;;;;;;;5049403;28;1344;-65
2023/05/17 09:07:13;;;;;;;;;;;;;;;;;;5052556;28;5012;-63
2023/05/17 09:09:38;;;;;;;;;;;;;;;;;;5047553;28;4479;-65
2023/05/17 09:12:04;;;;;;;;;;;;;;;;;;5054808;28;4670;-65
2023/05/17 09:14:33;;;;;;;;;;;;;;;;;;5048917;28;4430;-65
2023/05/17 09:16:59;;;;;;;;;;;;;;;;;;5047610;28;4662;-65
2023/05/17 09:19:24;;;;;;;;;;;;;;;;;;5052044;28;1529;-65
2023/05/17 09:21:50;;;;;;;;;;;;;;;;;;5049094;28;4652;-65
2023/05/17 09:24:17;;;;;;;;;;;;;;;;;;5050626;28;5252;-65
2023/05/17 09:26:44;;;;;;;;;;;;;;;;;;5048544;28;5242;-65
2023/05/17 09:29:12;;;;;;;;;;;;;;;;;;5052774;28;4505;-65
2023/05/17 09:31:38;;;;;;;;;;;;;;;;;;5058741;28;1710;-65
2023/05/17 09:34:05;;;;;;;;;;;;;;;;;;5051778;28;5285;-64
2023/05/17 09:36:31;;;;;;;;;;;;;;;;;;5057373;28;4463;-65
2023/05/17 09:38:58;;;;;;;;;;;;;;;;;;5058347;28;4645;-65
2023/05/17 09:41:27;;;;;;;;;;;;;;;;;;5058620;28;4919;-65
2023/05/17 09:43:52;;;;;;;;;;;;;;;;;;5064957;28;1012;-65
2023/05/17 09:46:20;;;;;;;;;;;;;;;;;;5058786;28;4831;-65
2023/05/17 09:48:46;;;;;;;;;;;;;;;;;;5061141;28;4436;-65
2023/05/17 09:51:11;;;;;;;;;;;;;;;;;;5047378;28;5029;-65
2023/05/17 09:53:38;;;;;;;;;;;;;;;;;;5053445;28;4684;-65
2023/05/17 09:56:04;;;;;;;;;;;;;;;;;;5047814;28;4921;-64
2023/05/17 09:58:32;;;;;;;;;;;;;;;;;;5052030;28;1401;-64
2023/05/17 10:00:58;;;;;;;;;;;;;;;;;;5061272;28;4568;-65
2023/05/17 10:03:29;;;;;;;;;;;;;;;;;;5050395;28;4479;-65
2023/05/17 10:05:54;;;;;;;;;;;;;;;;;;5056017;28;5011;-66
2023/05/17 10:08:21;;;;;;;;;;;;;;;;;;5051375;28;4690;-66
2023/05/17 10:10:49;;;;;;;;;;;;;;;;;;5055769;28;1156;-65
2023/05/17 10:13:14;;;;;;;;;;;;;;;;;;5049960;28;4821;-65
2023/05/17 10:15:39;;;;;;;;;;;;;;;;;;5054466;28;4486;-65
2023/05/17 10:18:06;;;;;;;;;;;;;;;;;;5048892;28;4473;-65
2023/05/17 10:20:31;;;;;;;;;;;;;;;;;;5060063;28;4616;-66
2023/05/17 10:22:56;;;;;;;;;;;;;;;;;;5050705;28;1476;-65
2023/05/17 10:25:22;;;;;;;;;;;;;;;;;;5052852;28;4398;-65
2023/05/17 10:27:48;;;;;;;;;;;;;;;;;;5045954;28;4702;-66
2023/05/17 10:30:14;;;;;;;;;;;;;;;;;;5050283;28;4478;-66
2023/05/17 10:32:40;;;;;;;;;;;;;;;;;;5058202;28;4437;-66
2023/05/17 10:35:05;;;;;;;;;;;;;;;;;;5056980;28;4671;-65
2023/05/17 10:37:30;;;;;;;;;;;;;;;;;;5050683;28;2230;-65
2023/05/17 10:39:56;;;;;;;;;;;;;;;;;;5046721;28;4412;-65
2023/05/17 10:42:21;;;;;;;;;;;;;;;;;;5048774;28;4454;-65
2023/05/17 10:44:46;;;;;;;;;;;;;;;;;;5063451;28;4704;-65
2023/05/17 10:47:12;;;;;;;;;;;;;;;;;;5056497;28;4980;-65
2023/05/17 10:49:46;;;;;;;;;;;;;;;;;;5051154;28;1294;-65
2023/05/17 10:52:17;;;;;;;;;;;;;;;;;;5048279;28;5218;-65
2023/05/17 10:54:43;;;;;;;;;;;;;;;;;;5050663;28;4445;-65
2023/05/17 10:57:10;;;;;;;;;;;;;;;;;;5056035;28;5182;-65
2023/05/17 10:59:35;;;;;;;;;;;;;;;;;;5057980;28;4711;-66
2023/05/17 11:02:02;;;;;;;;;;;;;;;;;;5029901;28;4936;-66
2023/05/17 11:04:35;;;;;;;;;;;;;;;;;;5053552;28;1254;-65
2023/05/17 11:07:22;;;;;;;;;;;;;;;;;;5054587;28;5689;-66
2023/05/17 11:09:49;;;;;;;;;;;;;;;;;;5046992;28;4474;-65
2023/05/17 11:12:15;;;;;;;;;;;;;;;;;;5057408;28;4445;-65
2023/05/17 11:14:43;;;;;;;;;;;;;;;;;;5056240;28;4533;-65
2023/05/17 11:17:14;;;;;;;;;;;;;;;;;;5046621;28;4628;-65
2023/05/17 11:19:49;;;;;;;;;;;;;;;;;;5054042;28;1318;-63
2023/05/17 11:22:15;;;;;;;;;;;;;;;;;;5050732;28;5171;-59
2023/05/17 11:24:40;;;;;;;;;;;;;;;;;;5050336;28;4985;-59
2023/05/17 11:27:06;;;;;;;;;;;;;;;;;;5040823;28;5117;-60
2023/05/17 11:29:31;;;;;;;;;;;;;;;;;;5056524;28;4525;-61
2023/05/17 11:31:56;;;;;;;;;;;;;;;;;;5051489;28;3367;-59
2023/05/17 11:34:24;;;;;;;;;;;;;;;;;;5063406;28;4452;-59
2023/05/17 11:36:50;;;;;;;;;;;;;;;;;;5056712;28;4440;-60
2023/05/17 11:39:16;;;;;;;;;;;;;;;;;;5052700;28;5126;-60
2023/05/17 11:41:55;;;;;;;;;;;;;;;;;;5059531;28;4499;-60
2023/05/17 11:44:24;;;;;;;;;;;;;;;;;;5052377;28;4979;-59
2023/05/17 11:46:49;;;;;;;;;;;;;;;;;;5057260;28;1674;-59
2023/05/17 11:49:14;;;;;;;;;;;;;;;;;;5049229;28;4668;-59
2023/05/17 11:51:39;;;;;;;;;;;;;;;;;;5060000;28;5129;-59
2023/05/17 11:54:05;;;;;;;;;;;;;;;;;;5048392;28;5542;-61
2023/05/17 11:56:35;;;;;;;;;;;;;;;;;;5046028;28;4967;-61
2023/05/17 11:59:01;;;;;;;;;;;;;;;;;;5051260;28;4877;-60
2023/05/17 12:01:26;;;;;;;;;;;;;;;;;;5052350;28;1158;-61
2023/05/17 12:03:56;;;;;;;;;;;;;;;;;;5045749;28;4978;-61
2023/05/17 12:06:22;;;;;;;;;;;;;;;;;;5058839;28;4544;-61
2023/05/17 12:08:47;;;;;;;;;;;;;;;;;;5049929;28;4570;-61
2023/05/17 12:11:16;;;;;;;;;;;;;;;;;;5038914;28;4469;-61
2023/05/17 12:13:41;;;;;;;;;;;;;;;;;;5024308;28;2034;-61
2023/05/17 12:16:08;;;;;;;;;;;;;;;;;;5043669;28;4671;-62
2023/05/17 12:18:40;;;;;;;;;;;;;;;;;;5046298;28;4610;-62
2023/05/17 12:21:05;;;;;;;;;;;;;;;;;;5042910;28;4637;-62
2023/05/17 12:23:34;;;;;;;;;;;;;;;;;;5046093;28;4570;-61
2023/05/17 12:26:13;;;;;;;;;;;;;;;;;;5043514;28;5071;-61
2023/05/17 12:28:39;;;;;;;;;;;;;;;;;;5043177;28;1977;-61
2023/05/17 12:31:07;;;;;;;;;;;;;;;;;;5046052;28;4964;-61
2023/05/17 12:33:34;;;;;;;;;;;;;;;;;;5046145;28;4474;-61
2023/05/17 12:35:59;;;;;;;;;;;;;;;;;;5045826;28;4986;-61
2023/05/17 12:38:26;;;;;;;;;;;;;;;;;;5058859;28;4552;-61
2023/05/17 12:40:52;;;;;;;;;;;;;;;;;;5038048;28;2593;-60
2023/05/17 12:43:18;;;;;;;;;;;;;;;;;;5042666;28;4516;-61
2023/05/17 12:45:43;;;;;;;;;;;;;;;;;;5053147;28;1805;-62
2023/05/17 12:48:09;;;;;;;;;;;;;;;;;;5046813;28;1938;-64
2023/05/17 12:50:34;;;;;;;;;;;;;;;;;;5045532;28;1521;-66
2023/05/17 12:53:06;;;;;;;;;;;;;;;;;;5055617;28;1806;-66
2023/05/17 12:55:34;;;;;;;;;;;;;;;;;;5046683;28;1644;-63
2023/05/17 12:58:01;;;;;;;;;;;;;;;;;;5042498;28;1738;-64
2023/05/17 13:00:26;;;;;;;;;;;;;;;;;;5046320;28;1754;-65
2023/05/17 13:02:51;;;;;;;;;;;;;;;;;;5031230;28;1742;-63
2023/05/17 13:05:22;;;;;;;;;;;;;;;;;;5056524;28;1722;-64
2023/05/17 13:07:48;;;;;;;;;;;;;;;;;;5044607;28;1906;-65
2023/05/17 13:10:24;;;;;;;;;;;;;;;;;;5048932;28;1769;-65
2023/05/17 13:12:53;;;;;;;;;;;;;;;;;;5059936;28;1690;-64
2023/05/17 13:15:18;;;;;;;;;;;;;;;;;;5057130;28;1750;-65
2023/05/17 13:17:46;;;;;;;;;;;;;;;;;;5048215;28;1500;-65
2023/05/17 13:20:11;;;;;;;;;;;;;;;;;;5056671;28;1951;-65
2023/05/17 13:22:40;;;;;;;;;;;;;;;;;;5048754;28;1668;-65
2023/05/17 13:25:06;;;;;;;;;;;;;;;;;;5056957;28;1698;-64
2023/05/17 13:27:31;;;;;;;;;;;;;;;;;;5050148;28;1968;-66
2023/05/17 13:29:56;;;;;;;;;;;;;;;;;;5045747;28;1725;-65
2023/05/17 13:32:21;;;;;;;;;;;;;;;;;;5056508;28;1617;-64
2023/05/17 13:34:47;;;;;;;;;;;;;;;;;;5051068;28;1717;-65
2023/05/17 13:37:12;;;;;;;;;;;;;;;;;;5041124;28;1689;-59
2023/05/17 13:39:37;;;;;;;;;;;;;;;;;;5043087;28;6264;-61
2023/05/17 13:42:03;;;;;;;;;;;;;;;;;;5043455;28;5436;-62
2023/05/17 13:44:28;;;;;;;;;;;;;;;;;;5047054;28;5341;-61
2023/05/17 13:46:53;;;;;;;;;;;;;;;;;;5047999;28;4468;-61
2023/05/17 13:49:19;;;;;;;;;;;;;;;;;;5047529;28;5556;-64
2023/05/17 13:51:44;;;;;;;;;;;;;;;;;;5049488;28;4777;-61
2023/05/17 13:54:10;;;;;;;;;;;;;;;;;;5048572;28;4484;-65
2023/05/17 13:56:35;;;;;;;;;;;;;;;;;;5047191;28;5086;-64
2023/05/17 13:59:00;;;;;;;;;;;;;;;;;;5045788;28;4415;-64
2023/05/17 14:01:26;;;;;;;;;;;;;;;;;;5047212;28;4651;-64
2023/05/17 14:03:51;;;;;;;;;;;;;;;;;;5048209;28;4868;-64
2023/05/17 14:06:16;;;;;;;;;;;;;;;;;;5050939;28;4476;-65
2023/05/17 14:08:43;;;;;;;;;;;;;;;;;;5051823;28;3408;-64
2023/05/17 14:11:08;;;;;;;;;;;;;;;;;;5047983;28;4565;-65
2023/05/17 14:13:33;;;;;;;;;;;;;;;;;;5046202;28;5095;-64
2023/05/17 14:15:58;;;;;;;;;;;;;;;;;;5046713;28;5007;-63
2023/05/17 14:18:24;;;;;;;;;;;;;;;;;;5046757;28;4578;-63
2023/05/17 14:20:49;;;;;;;;;;;;;;;;;;5041680;28;4819;-63
2023/05/17 14:23:14;;;;;;;;;;;;;;;;;;5053644;28;1248;-63
2023/05/17 14:25:42;;;;;;;;;;;;;;;;;;5050579;28;5067;-66
2023/05/17 14:28:07;;;;;;;;;;;;;;;;;;5045360;28;5690;-66
2023/05/17 14:30:32;;;;;;;;;;;;;;;;;;5041842;28;4611;-65
2023/05/17 14:32:58;;;;;;;;;;;;;;;;;;5051095;28;4681;-65
2023/05/17 14:35:23;;;;;;;;;;;;;;;;;;5040031;28;3407;-64
2023/05/17 14:37:48;;;;;;;;;;;;;;;;;;5048909;28;4837;-64
2023/05/17 14:40:14;;;;;;;;;;;;;;;;;;5043006;28;4874;-65
2023/05/17 14:42:39;;;;;;;;;;;;;;;;;;5041793;28;5132;-64
2023/05/17 14:45:05;;;;;;;;;;;;;;;;;;5044266;28;4645;-64
2023/05/17 14:47:30;;;;;;;;;;;;;;;;;;5046589;28;4808;-65
2023/05/17 14:49:55;;;;;;;;;;;;;;;;;;5042051;28;4984;-64
2023/05/17 14:52:21;;;;;;;;;;;;;;;;;;5052096;28;5069;-65
2023/05/17 14:54:46;;;;;;;;;;;;;;;;;;5054817;28;4987;-65
2023/05/17 14:57:12;;;;;;;;;;;;;;;;;;5048870;28;5020;-64
2023/05/17 14:59:37;;;;;;;;;;;;;;;;;;5048007;28;1223;-64
2023/05/17 15:02:03;;;;;;;;;;;;;;;;;;5049315;28;4827;-62
2023/05/17 15:04:29;;;;;;;;;;;;;;;;;;5055783;28;5177;-62
2023/05/17 15:06:54;;;;;;;;;;;;;;;;;;5043922;28;5189;-64
2023/05/17 15:09:21;;;;;;;;;;;;;;;;;;5041838;28;5011;-63
2023/05/17 15:11:46;;;;;;;;;;;;;;;;;;5044062;28;3254;-63
2023/05/17 15:14:12;;;;;;;;;;;;;;;;;;5047262;28;4513;-62
2023/05/17 15:16:37;;;;;;;;;;;;;;;;;;5046808;28;4457;-65
2023/05/17 15:19:02;;;;;;;;;;;;;;;;;;5045023;28;4868;-63
2023/05/17 15:21:27;;;;;;;;;;;;;;;;;;5040922;28;4658;-62
2023/05/17 15:23:53;;;;;;;;;;;;;;;;;;5045698;28;5042;-60
2023/05/17 15:26:18;;;;;;;;;;;;;;;;;;5047367;28;1167;-61
2023/05/17 15:28:43;;;;;;;;;;;;;;;;;;5044165;28;4549;-61
2023/05/17 15:31:09;;;;;;;;;;;;;;;;;;5042793;28;4510;-60
2023/05/17 15:33:38;;;;;;;;;;;;;;;;;;5038542;28;5459;-61
2023/05/17 15:36:06;;;;;;;;;;;;;;;;;;5044290;28;4445;-61
2023/05/17 15:38:32;;;;;;;;;;;;;;;;;;5046226;28;2535;-60
2023/05/17 15:41:02;;;;;;;;;;;;;;;;;;5034617;28;4999;-60
2023/05/17 15:43:27;;;;;;;;;;;;;;;;;;5040962;28;4452;-60
2023/05/17 15:45:53;;;;;;;;;;;;;;;;;;5028658;28;4532;-61
2023/05/17 15:48:18;;;;;;;;;;;;;;;;;;5041496;28;5323;-61
2023/05/17 15:50:43;;;;;;;;;;;;;;;;;;5047712;28;3354;-62
2023/05/17 15:53:08;;;;;;;;;;;;;;;;;;5043954;28;4867;-62
2023/05/17 15:55:34;;;;;;;;;;;;;;;;;;5042877;28;5098;-62
2023/05/17 15:57:59;;;;;;;;;;;;;;;;;;5044018;28;4666;-62
2023/05/17 16:00:24;;;;;;;;;;;;;;;;;;5043316;28;4668;-62
2023/05/17 16:02:50;;;;;;;;;;;;;;;;;;5042736;28;4488;-64
2023/05/17 16:05:15;;;;;;;;;;;;;;;;;;5049066;28;3332;-62
2023/05/17 16:07:41;;;;;;;;;;;;;;;;;;5044343;28;5079;-63
2023/05/17 16:10:06;;;;;;;;;;;;;;;;;;5040998;28;4562;-66
2023/05/17 16:12:31;;;;;;;;;;;;;;;;;;5041221;28;4489;-65
2023/05/17 16:14:57;;;;;;;;;;;;;;;;;;5045088;28;5045;-65
2023/05/17 16:17:22;;;;;;;;;;;;;;;;;;5046184;28;1265;-65
2023/05/17 16:19:47;;;;;;;;;;;;;;;;;;5045125;28;4688;-63
2023/05/17 16:22:12;;;;;;;;;;;;;;;;;;5045595;28;4501;-67
2023/05/17 16:24:38;;;;;;;;;;;;;;;;;;5047905;28;5042;-67
2023/05/17 16:27:03;;;;;;;;;;;;;;;;;;5047911;28;5175;-67
2023/05/17 16:29:28;;;;;;;;;;;;;;;;;;5048465;28;3362;-67
2023/05/17 16:31:54;;;;;;;;;;;;;;;;;;5048060;28;4650;-66
2023/05/17 16:34:19;;;;;;;;;;;;;;;;;;5048449;28;4464;-68
2023/05/17 16:36:46;;;;;;;;;;;;;;;;;;5050182;28;4549;-62
2023/05/17 16:39:11;;;;;;;;;;;;;;;;;;5052353;28;5095;-64
2023/05/17 16:41:37;;;;;;;;;;;;;;;;;;5058808;28;2616;-70
2023/05/17 16:44:03;;;;;;;;;;;;;;;;;;5047516;28;4648;-66
2023/05/17 16:46:28;;;;;;;;;;;;;;;;;;5046970;28;4650;-63
2023/05/17 16:48:54;;;;;;;;;;;;;;;;;;5057119;28;5765;-62
2023/05/17 16:51:19;;;;;;;;;;;;;;;;;;5046547;28;4829;-61
2023/05/17 16:53:44;;;;;;;;;;;;;;;;;;5053412;28;4462;-62
2023/05/17 16:56:10;;;;;;;;;;;;;;;;;;5048020;28;4380;-65